<?xml version="1.0" encoding="UTF-8" standalone="no" ?>
<gpx xmlns="http://www.topografix.com/GPX/1/1" xmlns:xsi="http://www.w3.org/2001/XMLSchema-instance" xsi:schemaLocation="http://www.topografix.com/GPX/1/1 http://www.topografix.com/GPX/1/1/gpx.xsd" version="1.1" creator="VisuGPX - https://www.visugpx.com">
  <metadata>
    <name>Arronnes  moulin Theux 27 kms </name>
    <desc><![CDATA[
Rando difficile au départ d'Arronnes 

descente très ravinée  entre les Kms 8 et 9  ]]></desc>
  </metadata>
  <trk>
    <name><![CDATA[2022-09-11 10:33]]></name>
    <desc><![CDATA[<p>Heure de départ: 09/11/2022 10:34<br/>Heure d'arrivée: 09/11/2022 15:17<br/>Distance: 47,6 km (04:43)<br/>Temps déplacement: 03:30<br/>Vitesse moyenne: 10,08 km/h<br/>Vitesse moyenne mouv.: 13,57 km/h<br/>Vitesse Max.: 75,31 km/h<br/>Altitude minimale: 255 m<br/>Altitude maximale: 678 m<br/>Vitesse de montée: 367,3 m/h<br/>Vitesse de descente: -731,3 m/h<br/>Gain d'altitude: 1123 m<br/>Perte d'altitude: -1173 m<br/>Temps de montée: 03:03<br/>Temps de descente: 01:36<br/></p><hr align="center" width="480" style="height: 2px; width: 517px"/>]]></desc>
    <extensions>
      <line xmlns="http://www.topografix.com/GPX/gpx_style/0/2">
        <color>0000FF</color>
        <width>4</width>
      </line>
    </extensions>
    <trkseg>
      <trkpt lat="46.05996" lon="3.56804">
        <ele>355.55</ele>
        <time>2022-09-11T08:34:00Z</time>
      </trkpt>
      <trkpt lat="46.05984" lon="3.56865">
        <ele>362.44</ele>
        <time>2022-09-11T08:34:53Z</time>
      </trkpt>
      <trkpt lat="46.05949" lon="3.56905">
        <ele>361.56</ele>
        <time>2022-09-11T08:35:13Z</time>
      </trkpt>
      <trkpt lat="46.05917" lon="3.5693">
        <ele>362.25</ele>
        <time>2022-09-11T08:35:25Z</time>
      </trkpt>
      <trkpt lat="46.05893" lon="3.56978">
        <ele>363.4</ele>
        <time>2022-09-11T08:35:41Z</time>
      </trkpt>
      <trkpt lat="46.05869" lon="3.57017">
        <ele>359.27</ele>
        <time>2022-09-11T08:35:53Z</time>
      </trkpt>
      <trkpt lat="46.05834" lon="3.57049">
        <ele>364.28</ele>
        <time>2022-09-11T08:36:05Z</time>
      </trkpt>
      <trkpt lat="46.05796" lon="3.57046">
        <ele>357.67</ele>
        <time>2022-09-11T08:36:13Z</time>
      </trkpt>
      <trkpt lat="46.05749" lon="3.57052">
        <ele>356.28</ele>
        <time>2022-09-11T08:36:25Z</time>
      </trkpt>
      <trkpt lat="46.05702" lon="3.57071">
        <ele>364.44</ele>
        <time>2022-09-11T08:36:37Z</time>
      </trkpt>
      <trkpt lat="46.05661" lon="3.57101">
        <ele>362.97</ele>
        <time>2022-09-11T08:36:49Z</time>
      </trkpt>
      <trkpt lat="46.0562" lon="3.57126">
        <ele>363.29</ele>
        <time>2022-09-11T08:37:01Z</time>
      </trkpt>
      <trkpt lat="46.05575" lon="3.57147">
        <ele>363.9</ele>
        <time>2022-09-11T08:37:13Z</time>
      </trkpt>
      <trkpt lat="46.05537" lon="3.5718">
        <ele>359.03</ele>
        <time>2022-09-11T08:37:25Z</time>
      </trkpt>
      <trkpt lat="46.05499" lon="3.57222">
        <ele>356.75</ele>
        <time>2022-09-11T08:37:37Z</time>
      </trkpt>
      <trkpt lat="46.0546" lon="3.57264">
        <ele>363.02</ele>
        <time>2022-09-11T08:37:49Z</time>
      </trkpt>
      <trkpt lat="46.05422" lon="3.57296">
        <ele>378.4</ele>
        <time>2022-09-11T08:38:01Z</time>
      </trkpt>
      <trkpt lat="46.05368" lon="3.57301">
        <ele>369.88</ele>
        <time>2022-09-11T08:38:13Z</time>
      </trkpt>
      <trkpt lat="46.05316" lon="3.57307">
        <ele>369.02</ele>
        <time>2022-09-11T08:38:25Z</time>
      </trkpt>
      <trkpt lat="46.05272" lon="3.57297">
        <ele>360.72</ele>
        <time>2022-09-11T08:38:37Z</time>
      </trkpt>
      <trkpt lat="46.05223" lon="3.57291">
        <ele>362.03</ele>
        <time>2022-09-11T08:38:49Z</time>
      </trkpt>
      <trkpt lat="46.05176" lon="3.57282">
        <ele>363.24</ele>
        <time>2022-09-11T08:39:01Z</time>
      </trkpt>
      <trkpt lat="46.05139" lon="3.57272">
        <ele>358.06</ele>
        <time>2022-09-11T08:39:09Z</time>
      </trkpt>
      <trkpt lat="46.05104" lon="3.57262">
        <ele>364.28</ele>
        <time>2022-09-11T08:39:21Z</time>
      </trkpt>
      <trkpt lat="46.05073" lon="3.57234">
        <ele>368.97</ele>
        <time>2022-09-11T08:39:37Z</time>
      </trkpt>
      <trkpt lat="46.05043" lon="3.57191">
        <ele>371.32</ele>
        <time>2022-09-11T08:40:01Z</time>
      </trkpt>
      <trkpt lat="46.05021" lon="3.57142">
        <ele>370.35</ele>
        <time>2022-09-11T08:40:25Z</time>
      </trkpt>
      <trkpt lat="46.05007" lon="3.57088">
        <ele>374.13</ele>
        <time>2022-09-11T08:40:49Z</time>
      </trkpt>
      <trkpt lat="46.04975" lon="3.57117">
        <ele>391.29</ele>
        <time>2022-09-11T08:41:29Z</time>
      </trkpt>
      <trkpt lat="46.04983" lon="3.57168">
        <ele>400.63</ele>
        <time>2022-09-11T08:41:53Z</time>
      </trkpt>
      <trkpt lat="46.04966" lon="3.57217">
        <ele>404.9</ele>
        <time>2022-09-11T08:42:21Z</time>
      </trkpt>
      <trkpt lat="46.04928" lon="3.57195">
        <ele>407.12</ele>
        <time>2022-09-11T08:42:57Z</time>
      </trkpt>
      <trkpt lat="46.04887" lon="3.5719">
        <ele>411.81</ele>
        <time>2022-09-11T08:44:05Z</time>
      </trkpt>
      <trkpt lat="46.04848" lon="3.57193">
        <ele>413.71</ele>
        <time>2022-09-11T08:44:33Z</time>
      </trkpt>
      <trkpt lat="46.04829" lon="3.57147">
        <ele>416.71</ele>
        <time>2022-09-11T08:45:01Z</time>
      </trkpt>
      <trkpt lat="46.04827" lon="3.57089">
        <ele>418.58</ele>
        <time>2022-09-11T08:45:29Z</time>
      </trkpt>
      <trkpt lat="46.04806" lon="3.57042">
        <ele>425.94</ele>
        <time>2022-09-11T08:45:57Z</time>
      </trkpt>
      <trkpt lat="46.04768" lon="3.57062">
        <ele>437.84</ele>
        <time>2022-09-11T08:46:33Z</time>
      </trkpt>
      <trkpt lat="46.04734" lon="3.57082">
        <ele>440.19</ele>
        <time>2022-09-11T08:47:05Z</time>
      </trkpt>
      <trkpt lat="46.04705" lon="3.57045">
        <ele>435.39</ele>
        <time>2022-09-11T08:47:41Z</time>
      </trkpt>
      <trkpt lat="46.04685" lon="3.57">
        <ele>442.28</ele>
        <time>2022-09-11T08:48:09Z</time>
      </trkpt>
      <trkpt lat="46.04658" lon="3.56966">
        <ele>452.77</ele>
        <time>2022-09-11T08:49:37Z</time>
      </trkpt>
      <trkpt lat="46.0461" lon="3.56968">
        <ele>454.71</ele>
        <time>2022-09-11T08:49:49Z</time>
      </trkpt>
      <trkpt lat="46.04579" lon="3.57008">
        <ele>454.57</ele>
        <time>2022-09-11T08:49:57Z</time>
      </trkpt>
      <trkpt lat="46.04557" lon="3.57051">
        <ele>453.19</ele>
        <time>2022-09-11T08:50:13Z</time>
      </trkpt>
      <trkpt lat="46.04503" lon="3.57074">
        <ele>456.59</ele>
        <time>2022-09-11T08:50:29Z</time>
      </trkpt>
      <trkpt lat="46.04468" lon="3.5709">
        <ele>451.52</ele>
        <time>2022-09-11T08:50:37Z</time>
      </trkpt>
      <trkpt lat="46.04439" lon="3.5713">
        <ele>448.69</ele>
        <time>2022-09-11T08:50:49Z</time>
      </trkpt>
      <trkpt lat="46.04413" lon="3.57175">
        <ele>446.84</ele>
        <time>2022-09-11T08:51:01Z</time>
      </trkpt>
      <trkpt lat="46.04385" lon="3.57219">
        <ele>453.15</ele>
        <time>2022-09-11T08:51:13Z</time>
      </trkpt>
      <trkpt lat="46.04333" lon="3.57233">
        <ele>443.57</ele>
        <time>2022-09-11T08:51:25Z</time>
      </trkpt>
      <trkpt lat="46.04283" lon="3.57203">
        <ele>439.42</ele>
        <time>2022-09-11T08:51:33Z</time>
      </trkpt>
      <trkpt lat="46.04251" lon="3.57235">
        <ele>437.41</ele>
        <time>2022-09-11T08:51:37Z</time>
      </trkpt>
      <trkpt lat="46.04205" lon="3.5729">
        <ele>438.24</ele>
        <time>2022-09-11T08:51:45Z</time>
      </trkpt>
      <trkpt lat="46.04184" lon="3.57334">
        <ele>444.58</ele>
        <time>2022-09-11T08:52:13Z</time>
      </trkpt>
      <trkpt lat="46.04163" lon="3.57379">
        <ele>445.65</ele>
        <time>2022-09-11T08:52:57Z</time>
      </trkpt>
      <trkpt lat="46.04132" lon="3.57415">
        <ele>457.23</ele>
        <time>2022-09-11T08:53:29Z</time>
      </trkpt>
      <trkpt lat="46.041" lon="3.57442">
        <ele>463.82</ele>
        <time>2022-09-11T08:54:01Z</time>
      </trkpt>
      <trkpt lat="46.04065" lon="3.57476">
        <ele>473.07</ele>
        <time>2022-09-11T08:54:41Z</time>
      </trkpt>
      <trkpt lat="46.0403" lon="3.57491">
        <ele>478.03</ele>
        <time>2022-09-11T08:55:25Z</time>
      </trkpt>
      <trkpt lat="46.03994" lon="3.575">
        <ele>483.08</ele>
        <time>2022-09-11T08:56:01Z</time>
      </trkpt>
      <trkpt lat="46.03956" lon="3.57513">
        <ele>487.34</ele>
        <time>2022-09-11T08:56:37Z</time>
      </trkpt>
      <trkpt lat="46.03919" lon="3.575">
        <ele>493.5</ele>
        <time>2022-09-11T08:57:17Z</time>
      </trkpt>
      <trkpt lat="46.03884" lon="3.57476">
        <ele>501.55</ele>
        <time>2022-09-11T08:57:57Z</time>
      </trkpt>
      <trkpt lat="46.03845" lon="3.57489">
        <ele>505.72</ele>
        <time>2022-09-11T08:58:53Z</time>
      </trkpt>
      <trkpt lat="46.03805" lon="3.57505">
        <ele>509.14</ele>
        <time>2022-09-11T08:59:29Z</time>
      </trkpt>
      <trkpt lat="46.03766" lon="3.57511">
        <ele>514.01</ele>
        <time>2022-09-11T09:00:09Z</time>
      </trkpt>
      <trkpt lat="46.03804" lon="3.57507">
        <ele>520.89</ele>
        <time>2022-09-11T09:01:01Z</time>
      </trkpt>
      <trkpt lat="46.03766" lon="3.57513">
        <ele>517.35</ele>
        <time>2022-09-11T09:01:57Z</time>
      </trkpt>
      <trkpt lat="46.03731" lon="3.57525">
        <ele>522.38</ele>
        <time>2022-09-11T09:02:37Z</time>
      </trkpt>
      <trkpt lat="46.03697" lon="3.57551">
        <ele>527.44</ele>
        <time>2022-09-11T09:03:17Z</time>
      </trkpt>
      <trkpt lat="46.03659" lon="3.57565">
        <ele>526.7</ele>
        <time>2022-09-11T09:03:53Z</time>
      </trkpt>
      <trkpt lat="46.03625" lon="3.57581">
        <ele>532.11</ele>
        <time>2022-09-11T09:04:25Z</time>
      </trkpt>
      <trkpt lat="46.03588" lon="3.57587">
        <ele>532.86</ele>
        <time>2022-09-11T09:05:01Z</time>
      </trkpt>
      <trkpt lat="46.0355" lon="3.5759">
        <ele>538.39</ele>
        <time>2022-09-11T09:05:29Z</time>
      </trkpt>
      <trkpt lat="46.03511" lon="3.57592">
        <ele>541.72</ele>
        <time>2022-09-11T09:06:01Z</time>
      </trkpt>
      <trkpt lat="46.03472" lon="3.57586">
        <ele>543.52</ele>
        <time>2022-09-11T09:06:33Z</time>
      </trkpt>
      <trkpt lat="46.03434" lon="3.57582">
        <ele>548.94</ele>
        <time>2022-09-11T09:07:05Z</time>
      </trkpt>
      <trkpt lat="46.03395" lon="3.5758">
        <ele>555.24</ele>
        <time>2022-09-11T09:07:37Z</time>
      </trkpt>
      <trkpt lat="46.03357" lon="3.57578">
        <ele>556.25</ele>
        <time>2022-09-11T09:08:09Z</time>
      </trkpt>
      <trkpt lat="46.03319" lon="3.57578">
        <ele>552.51</ele>
        <time>2022-09-11T09:08:29Z</time>
      </trkpt>
      <trkpt lat="46.03277" lon="3.57578">
        <ele>555.39</ele>
        <time>2022-09-11T09:08:49Z</time>
      </trkpt>
      <trkpt lat="46.03236" lon="3.57577">
        <ele>558.17</ele>
        <time>2022-09-11T09:09:13Z</time>
      </trkpt>
      <trkpt lat="46.03196" lon="3.57576">
        <ele>562.89</ele>
        <time>2022-09-11T09:09:33Z</time>
      </trkpt>
      <trkpt lat="46.03155" lon="3.57574">
        <ele>563.58</ele>
        <time>2022-09-11T09:09:57Z</time>
      </trkpt>
      <trkpt lat="46.03118" lon="3.57566">
        <ele>560.94</ele>
        <time>2022-09-11T09:10:17Z</time>
      </trkpt>
      <trkpt lat="46.03078" lon="3.57564">
        <ele>560.19</ele>
        <time>2022-09-11T09:10:33Z</time>
      </trkpt>
      <trkpt lat="46.03039" lon="3.57561">
        <ele>563.94</ele>
        <time>2022-09-11T09:10:57Z</time>
      </trkpt>
      <trkpt lat="46.03013" lon="3.57603">
        <ele>566.66</ele>
        <time>2022-09-11T09:11:25Z</time>
      </trkpt>
      <trkpt lat="46.02982" lon="3.5764">
        <ele>569.09</ele>
        <time>2022-09-11T09:11:41Z</time>
      </trkpt>
      <trkpt lat="46.02938" lon="3.57634">
        <ele>567.77</ele>
        <time>2022-09-11T09:11:57Z</time>
      </trkpt>
      <trkpt lat="46.02902" lon="3.5763">
        <ele>576.54</ele>
        <time>2022-09-11T09:12:13Z</time>
      </trkpt>
      <trkpt lat="46.02856" lon="3.57643">
        <ele>574.13</ele>
        <time>2022-09-11T09:12:33Z</time>
      </trkpt>
      <trkpt lat="46.0281" lon="3.57652">
        <ele>577.88</ele>
        <time>2022-09-11T09:12:53Z</time>
      </trkpt>
      <trkpt lat="46.02795" lon="3.576">
        <ele>579.36</ele>
        <time>2022-09-11T09:13:05Z</time>
      </trkpt>
      <trkpt lat="46.02784" lon="3.5755">
        <ele>576.7</ele>
        <time>2022-09-11T09:13:21Z</time>
      </trkpt>
      <trkpt lat="46.0275" lon="3.5761">
        <ele>568.26</ele>
        <time>2022-09-11T09:13:33Z</time>
      </trkpt>
      <trkpt lat="46.0272" lon="3.57658">
        <ele>571.05</ele>
        <time>2022-09-11T09:13:41Z</time>
      </trkpt>
      <trkpt lat="46.02676" lon="3.57673">
        <ele>572.51</ele>
        <time>2022-09-11T09:13:53Z</time>
      </trkpt>
      <trkpt lat="46.02622" lon="3.57678">
        <ele>569.33</ele>
        <time>2022-09-11T09:14:01Z</time>
      </trkpt>
      <trkpt lat="46.02559" lon="3.57678">
        <ele>567.43</ele>
        <time>2022-09-11T09:14:09Z</time>
      </trkpt>
      <trkpt lat="46.02497" lon="3.57657">
        <ele>565.44</ele>
        <time>2022-09-11T09:14:17Z</time>
      </trkpt>
      <trkpt lat="46.02436" lon="3.57648">
        <ele>562.39</ele>
        <time>2022-09-11T09:14:25Z</time>
      </trkpt>
      <trkpt lat="46.024" lon="3.57659">
        <ele>559.71</ele>
        <time>2022-09-11T09:14:29Z</time>
      </trkpt>
      <trkpt lat="46.02331" lon="3.57665">
        <ele>545.85</ele>
        <time>2022-09-11T09:14:37Z</time>
      </trkpt>
      <trkpt lat="46.02285" lon="3.57673">
        <ele>537.32</ele>
        <time>2022-09-11T09:14:45Z</time>
      </trkpt>
      <trkpt lat="46.02239" lon="3.57635">
        <ele>521.15</ele>
        <time>2022-09-11T09:14:53Z</time>
      </trkpt>
      <trkpt lat="46.022" lon="3.57599">
        <ele>515.99</ele>
        <time>2022-09-11T09:15:01Z</time>
      </trkpt>
      <trkpt lat="46.02149" lon="3.57626">
        <ele>508.24</ele>
        <time>2022-09-11T09:15:09Z</time>
      </trkpt>
      <trkpt lat="46.0211" lon="3.57659">
        <ele>506.5</ele>
        <time>2022-09-11T09:15:17Z</time>
      </trkpt>
      <trkpt lat="46.02064" lon="3.57666">
        <ele>496.65</ele>
        <time>2022-09-11T09:15:29Z</time>
      </trkpt>
      <trkpt lat="46.02007" lon="3.57687">
        <ele>493.55</ele>
        <time>2022-09-11T09:15:37Z</time>
      </trkpt>
      <trkpt lat="46.01939" lon="3.57671">
        <ele>488.44</ele>
        <time>2022-09-11T09:15:45Z</time>
      </trkpt>
      <trkpt lat="46.0189" lon="3.57648">
        <ele>475.66</ele>
        <time>2022-09-11T09:16:01Z</time>
      </trkpt>
      <trkpt lat="46.01861" lon="3.57617">
        <ele>473.43</ele>
        <time>2022-09-11T09:16:21Z</time>
      </trkpt>
      <trkpt lat="46.01826" lon="3.57639">
        <ele>468.59</ele>
        <time>2022-09-11T09:16:33Z</time>
      </trkpt>
      <trkpt lat="46.01792" lon="3.5767">
        <ele>468.16</ele>
        <time>2022-09-11T09:16:45Z</time>
      </trkpt>
      <trkpt lat="46.01769" lon="3.57721">
        <ele>458.48</ele>
        <time>2022-09-11T09:16:57Z</time>
      </trkpt>
      <trkpt lat="46.01745" lon="3.57764">
        <ele>459.94</ele>
        <time>2022-09-11T09:17:17Z</time>
      </trkpt>
      <trkpt lat="46.01745" lon="3.57819">
        <ele>468.62</ele>
        <time>2022-09-11T09:17:53Z</time>
      </trkpt>
      <trkpt lat="46.01764" lon="3.57867">
        <ele>474.08</ele>
        <time>2022-09-11T09:18:25Z</time>
      </trkpt>
      <trkpt lat="46.01795" lon="3.57897">
        <ele>481.49</ele>
        <time>2022-09-11T09:19:01Z</time>
      </trkpt>
      <trkpt lat="46.0183" lon="3.57928">
        <ele>482.21</ele>
        <time>2022-09-11T09:19:37Z</time>
      </trkpt>
      <trkpt lat="46.01856" lon="3.57976">
        <ele>487.79</ele>
        <time>2022-09-11T09:20:13Z</time>
      </trkpt>
      <trkpt lat="46.01846" lon="3.58029">
        <ele>493.76</ele>
        <time>2022-09-11T09:20:57Z</time>
      </trkpt>
      <trkpt lat="46.01813" lon="3.58049">
        <ele>496.99</ele>
        <time>2022-09-11T09:21:29Z</time>
      </trkpt>
      <trkpt lat="46.01775" lon="3.58026">
        <ele>497.56</ele>
        <time>2022-09-11T09:22:29Z</time>
      </trkpt>
      <trkpt lat="46.01733" lon="3.57995">
        <ele>495.9</ele>
        <time>2022-09-11T09:22:53Z</time>
      </trkpt>
      <trkpt lat="46.01691" lon="3.57988">
        <ele>500.78</ele>
        <time>2022-09-11T09:23:37Z</time>
      </trkpt>
      <trkpt lat="46.01652" lon="3.58006">
        <ele>522.26</ele>
        <time>2022-09-11T09:24:05Z</time>
      </trkpt>
      <trkpt lat="46.01611" lon="3.58014">
        <ele>517.46</ele>
        <time>2022-09-11T09:24:41Z</time>
      </trkpt>
      <trkpt lat="46.0157" lon="3.58007">
        <ele>522.75</ele>
        <time>2022-09-11T09:25:13Z</time>
      </trkpt>
      <trkpt lat="46.01534" lon="3.57994">
        <ele>536.25</ele>
        <time>2022-09-11T09:27:37Z</time>
      </trkpt>
      <trkpt lat="46.01495" lon="3.57976">
        <ele>531.13</ele>
        <time>2022-09-11T09:28:25Z</time>
      </trkpt>
      <trkpt lat="46.01443" lon="3.5796">
        <ele>531.89</ele>
        <time>2022-09-11T09:28:49Z</time>
      </trkpt>
      <trkpt lat="46.01411" lon="3.5793">
        <ele>533.16</ele>
        <time>2022-09-11T09:29:09Z</time>
      </trkpt>
      <trkpt lat="46.01385" lon="3.57895">
        <ele>533.98</ele>
        <time>2022-09-11T09:29:37Z</time>
      </trkpt>
      <trkpt lat="46.0135" lon="3.57873">
        <ele>536.73</ele>
        <time>2022-09-11T09:30:05Z</time>
      </trkpt>
      <trkpt lat="46.01316" lon="3.5785">
        <ele>545.51</ele>
        <time>2022-09-11T09:30:37Z</time>
      </trkpt>
      <trkpt lat="46.01282" lon="3.57831">
        <ele>553.33</ele>
        <time>2022-09-11T09:31:13Z</time>
      </trkpt>
      <trkpt lat="46.01244" lon="3.57822">
        <ele>557.52</ele>
        <time>2022-09-11T09:31:45Z</time>
      </trkpt>
      <trkpt lat="46.01208" lon="3.5783">
        <ele>555.94</ele>
        <time>2022-09-11T09:32:17Z</time>
      </trkpt>
      <trkpt lat="46.01169" lon="3.57844">
        <ele>560.02</ele>
        <time>2022-09-11T09:32:49Z</time>
      </trkpt>
      <trkpt lat="46.0116" lon="3.57899">
        <ele>564.75</ele>
        <time>2022-09-11T09:33:41Z</time>
      </trkpt>
      <trkpt lat="46.0114" lon="3.57944">
        <ele>572.63</ele>
        <time>2022-09-11T09:34:17Z</time>
      </trkpt>
      <trkpt lat="46.01112" lon="3.57979">
        <ele>567.54</ele>
        <time>2022-09-11T09:34:29Z</time>
      </trkpt>
      <trkpt lat="46.01071" lon="3.58005">
        <ele>566.16</ele>
        <time>2022-09-11T09:34:53Z</time>
      </trkpt>
      <trkpt lat="46.01033" lon="3.58041">
        <ele>566.42</ele>
        <time>2022-09-11T09:35:05Z</time>
      </trkpt>
      <trkpt lat="46.01004" lon="3.58075">
        <ele>564.88</ele>
        <time>2022-09-11T09:35:17Z</time>
      </trkpt>
      <trkpt lat="46.01003" lon="3.58129">
        <ele>566.56</ele>
        <time>2022-09-11T09:35:33Z</time>
      </trkpt>
      <trkpt lat="46.0101" lon="3.5819">
        <ele>563.33</ele>
        <time>2022-09-11T09:35:41Z</time>
      </trkpt>
      <trkpt lat="46.01021" lon="3.58257">
        <ele>561.06</ele>
        <time>2022-09-11T09:35:53Z</time>
      </trkpt>
      <trkpt lat="46.0104" lon="3.5831">
        <ele>564.98</ele>
        <time>2022-09-11T09:36:13Z</time>
      </trkpt>
      <trkpt lat="46.01032" lon="3.58362">
        <ele>563.02</ele>
        <time>2022-09-11T09:36:25Z</time>
      </trkpt>
      <trkpt lat="46.01018" lon="3.58422">
        <ele>557.67</ele>
        <time>2022-09-11T09:36:37Z</time>
      </trkpt>
      <trkpt lat="46.00994" lon="3.58466">
        <ele>559.17</ele>
        <time>2022-09-11T09:36:45Z</time>
      </trkpt>
      <trkpt lat="46.01008" lon="3.58519">
        <ele>557.95</ele>
        <time>2022-09-11T09:37:05Z</time>
      </trkpt>
      <trkpt lat="46.00968" lon="3.5853">
        <ele>557.4</ele>
        <time>2022-09-11T09:37:49Z</time>
      </trkpt>
      <trkpt lat="46.0093" lon="3.58522">
        <ele>562.65</ele>
        <time>2022-09-11T09:38:25Z</time>
      </trkpt>
      <trkpt lat="46.00893" lon="3.58526">
        <ele>572.29</ele>
        <time>2022-09-11T09:39:01Z</time>
      </trkpt>
      <trkpt lat="46.00856" lon="3.58539">
        <ele>576.12</ele>
        <time>2022-09-11T09:39:41Z</time>
      </trkpt>
      <trkpt lat="46.0082" lon="3.58547">
        <ele>583.33</ele>
        <time>2022-09-11T09:41:01Z</time>
      </trkpt>
      <trkpt lat="46.00783" lon="3.58553">
        <ele>584.42</ele>
        <time>2022-09-11T09:41:29Z</time>
      </trkpt>
      <trkpt lat="46.00754" lon="3.5859">
        <ele>600.46</ele>
        <time>2022-09-11T09:42:37Z</time>
      </trkpt>
      <trkpt lat="46.00722" lon="3.58624">
        <ele>601.27</ele>
        <time>2022-09-11T09:43:05Z</time>
      </trkpt>
      <trkpt lat="46.00683" lon="3.58619">
        <ele>615.97</ele>
        <time>2022-09-11T09:43:41Z</time>
      </trkpt>
      <trkpt lat="46.0065" lon="3.58585">
        <ele>610.41</ele>
        <time>2022-09-11T09:44:13Z</time>
      </trkpt>
      <trkpt lat="46.00609" lon="3.58598">
        <ele>612.79</ele>
        <time>2022-09-11T09:48:45Z</time>
      </trkpt>
      <trkpt lat="46.00578" lon="3.58629">
        <ele>610.68</ele>
        <time>2022-09-11T09:48:53Z</time>
      </trkpt>
      <trkpt lat="46.00545" lon="3.58653">
        <ele>608.46</ele>
        <time>2022-09-11T09:49:01Z</time>
      </trkpt>
      <trkpt lat="46.00509" lon="3.58677">
        <ele>606.52</ele>
        <time>2022-09-11T09:49:09Z</time>
      </trkpt>
      <trkpt lat="46.00502" lon="3.58736">
        <ele>598.82</ele>
        <time>2022-09-11T09:49:29Z</time>
      </trkpt>
      <trkpt lat="46.00524" lon="3.58803">
        <ele>592.58</ele>
        <time>2022-09-11T09:49:41Z</time>
      </trkpt>
      <trkpt lat="46.00547" lon="3.58862">
        <ele>589.7</ele>
        <time>2022-09-11T09:49:53Z</time>
      </trkpt>
      <trkpt lat="46.00562" lon="3.58909">
        <ele>582.05</ele>
        <time>2022-09-11T09:50:05Z</time>
      </trkpt>
      <trkpt lat="46.00557" lon="3.58964">
        <ele>579.72</ele>
        <time>2022-09-11T09:50:21Z</time>
      </trkpt>
      <trkpt lat="46.00576" lon="3.5901">
        <ele>571.43</ele>
        <time>2022-09-11T09:51:57Z</time>
      </trkpt>
      <trkpt lat="46.00585" lon="3.59064">
        <ele>560.18</ele>
        <time>2022-09-11T09:52:13Z</time>
      </trkpt>
      <trkpt lat="46.00612" lon="3.59099">
        <ele>557.98</ele>
        <time>2022-09-11T09:52:29Z</time>
      </trkpt>
      <trkpt lat="46.00647" lon="3.59111">
        <ele>551.69</ele>
        <time>2022-09-11T09:53:41Z</time>
      </trkpt>
      <trkpt lat="46.00688" lon="3.59129">
        <ele>536.51</ele>
        <time>2022-09-11T09:54:05Z</time>
      </trkpt>
      <trkpt lat="46.00683" lon="3.59185">
        <ele>526.65</ele>
        <time>2022-09-11T09:54:33Z</time>
      </trkpt>
      <trkpt lat="46.00664" lon="3.59242">
        <ele>534.57</ele>
        <time>2022-09-11T09:55:09Z</time>
      </trkpt>
      <trkpt lat="46.00682" lon="3.59291">
        <ele>537.17</ele>
        <time>2022-09-11T09:55:29Z</time>
      </trkpt>
      <trkpt lat="46.00691" lon="3.59346">
        <ele>531.55</ele>
        <time>2022-09-11T09:56:05Z</time>
      </trkpt>
      <trkpt lat="46.00712" lon="3.59393">
        <ele>542.08</ele>
        <time>2022-09-11T09:56:25Z</time>
      </trkpt>
      <trkpt lat="46.00718" lon="3.59457">
        <ele>536.83</ele>
        <time>2022-09-11T09:57:09Z</time>
      </trkpt>
      <trkpt lat="46.00719" lon="3.59509">
        <ele>535.87</ele>
        <time>2022-09-11T09:57:21Z</time>
      </trkpt>
      <trkpt lat="46.00726" lon="3.59579">
        <ele>541.55</ele>
        <time>2022-09-11T09:57:33Z</time>
      </trkpt>
      <trkpt lat="46.00727" lon="3.59648">
        <ele>533.08</ele>
        <time>2022-09-11T09:57:41Z</time>
      </trkpt>
      <trkpt lat="46.00761" lon="3.59668">
        <ele>525.74</ele>
        <time>2022-09-11T09:57:49Z</time>
      </trkpt>
      <trkpt lat="46.00793" lon="3.59692">
        <ele>530.9</ele>
        <time>2022-09-11T09:58:09Z</time>
      </trkpt>
      <trkpt lat="46.00831" lon="3.59768">
        <ele>532.96</ele>
        <time>2022-09-11T09:59:01Z</time>
      </trkpt>
      <trkpt lat="46.00854" lon="3.59838">
        <ele>526</ele>
        <time>2022-09-11T09:59:13Z</time>
      </trkpt>
      <trkpt lat="46.00851" lon="3.59927">
        <ele>523.41</ele>
        <time>2022-09-11T09:59:25Z</time>
      </trkpt>
      <trkpt lat="46.00844" lon="3.59978">
        <ele>512.06</ele>
        <time>2022-09-11T09:59:33Z</time>
      </trkpt>
      <trkpt lat="46.00825" lon="3.60036">
        <ele>504.53</ele>
        <time>2022-09-11T09:59:41Z</time>
      </trkpt>
      <trkpt lat="46.00806" lon="3.60097">
        <ele>503.36</ele>
        <time>2022-09-11T09:59:49Z</time>
      </trkpt>
      <trkpt lat="46.00832" lon="3.60142">
        <ele>509.52</ele>
        <time>2022-09-11T10:00:05Z</time>
      </trkpt>
      <trkpt lat="46.00812" lon="3.60186">
        <ele>510.88</ele>
        <time>2022-09-11T10:01:05Z</time>
      </trkpt>
      <trkpt lat="46.00775" lon="3.60198">
        <ele>507.82</ele>
        <time>2022-09-11T10:01:21Z</time>
      </trkpt>
      <trkpt lat="46.00742" lon="3.60233">
        <ele>507.55</ele>
        <time>2022-09-11T10:01:41Z</time>
      </trkpt>
      <trkpt lat="46.00715" lon="3.60278">
        <ele>505.1</ele>
        <time>2022-09-11T10:01:53Z</time>
      </trkpt>
      <trkpt lat="46.00672" lon="3.60308">
        <ele>500.23</ele>
        <time>2022-09-11T10:02:05Z</time>
      </trkpt>
      <trkpt lat="46.00687" lon="3.60355">
        <ele>504.3</ele>
        <time>2022-09-11T10:02:33Z</time>
      </trkpt>
      <trkpt lat="46.0067" lon="3.60407">
        <ele>510.85</ele>
        <time>2022-09-11T10:03:05Z</time>
      </trkpt>
      <trkpt lat="46.00647" lon="3.60471">
        <ele>511.74</ele>
        <time>2022-09-11T10:03:25Z</time>
      </trkpt>
      <trkpt lat="46.00627" lon="3.60529">
        <ele>512.51</ele>
        <time>2022-09-11T10:03:41Z</time>
      </trkpt>
      <trkpt lat="46.00605" lon="3.60574">
        <ele>508.54</ele>
        <time>2022-09-11T10:04:49Z</time>
      </trkpt>
      <trkpt lat="46.00576" lon="3.60618">
        <ele>498.22</ele>
        <time>2022-09-11T10:05:01Z</time>
      </trkpt>
      <trkpt lat="46.0056" lon="3.60666">
        <ele>492.13</ele>
        <time>2022-09-11T10:05:49Z</time>
      </trkpt>
      <trkpt lat="46.00533" lon="3.60713">
        <ele>493.47</ele>
        <time>2022-09-11T10:06:17Z</time>
      </trkpt>
      <trkpt lat="46.00506" lon="3.60752">
        <ele>495.2</ele>
        <time>2022-09-11T10:06:41Z</time>
      </trkpt>
      <trkpt lat="46.00488" lon="3.608">
        <ele>508.06</ele>
        <time>2022-09-11T10:09:13Z</time>
      </trkpt>
      <trkpt lat="46.00482" lon="3.60853">
        <ele>504.81</ele>
        <time>2022-09-11T10:09:33Z</time>
      </trkpt>
      <trkpt lat="46.00456" lon="3.60894">
        <ele>502.94</ele>
        <time>2022-09-11T10:10:05Z</time>
      </trkpt>
      <trkpt lat="46.0042" lon="3.6092">
        <ele>498.53</ele>
        <time>2022-09-11T10:10:13Z</time>
      </trkpt>
      <trkpt lat="46.00383" lon="3.60915">
        <ele>494.94</ele>
        <time>2022-09-11T10:10:37Z</time>
      </trkpt>
      <trkpt lat="46.0034" lon="3.60911">
        <ele>504.05</ele>
        <time>2022-09-11T10:11:05Z</time>
      </trkpt>
      <trkpt lat="46.00302" lon="3.6092">
        <ele>505.97</ele>
        <time>2022-09-11T10:12:09Z</time>
      </trkpt>
      <trkpt lat="46.00264" lon="3.60937">
        <ele>511.98</ele>
        <time>2022-09-11T10:12:37Z</time>
      </trkpt>
      <trkpt lat="46.00223" lon="3.60958">
        <ele>527.95</ele>
        <time>2022-09-11T10:14:33Z</time>
      </trkpt>
      <trkpt lat="46.00246" lon="3.60999">
        <ele>528.1</ele>
        <time>2022-09-11T10:15:53Z</time>
      </trkpt>
      <trkpt lat="46.00257" lon="3.61051">
        <ele>526.52</ele>
        <time>2022-09-11T10:16:21Z</time>
      </trkpt>
      <trkpt lat="46.00243" lon="3.61103">
        <ele>506.68</ele>
        <time>2022-09-11T10:17:49Z</time>
      </trkpt>
      <trkpt lat="46.00211" lon="3.61071">
        <ele>490.66</ele>
        <time>2022-09-11T10:18:45Z</time>
      </trkpt>
      <trkpt lat="46.00178" lon="3.61043">
        <ele>510.88</ele>
        <time>2022-09-11T10:19:33Z</time>
      </trkpt>
      <trkpt lat="46.00186" lon="3.61094">
        <ele>527.23</ele>
        <time>2022-09-11T10:20:45Z</time>
      </trkpt>
      <trkpt lat="46.00166" lon="3.61143">
        <ele>528.66</ele>
        <time>2022-09-11T10:21:49Z</time>
      </trkpt>
      <trkpt lat="46.00134" lon="3.61119">
        <ele>528.62</ele>
        <time>2022-09-11T10:22:25Z</time>
      </trkpt>
      <trkpt lat="46.00105" lon="3.6107">
        <ele>543.74</ele>
        <time>2022-09-11T10:23:05Z</time>
      </trkpt>
      <trkpt lat="46.00088" lon="3.61023">
        <ele>547.03</ele>
        <time>2022-09-11T10:23:33Z</time>
      </trkpt>
      <trkpt lat="46.00074" lon="3.61072">
        <ele>555.98</ele>
        <time>2022-09-11T10:28:29Z</time>
      </trkpt>
      <trkpt lat="46.00052" lon="3.61127">
        <ele>550.41</ele>
        <time>2022-09-11T10:28:41Z</time>
      </trkpt>
      <trkpt lat="46.00005" lon="3.61162">
        <ele>541.44</ele>
        <time>2022-09-11T10:28:57Z</time>
      </trkpt>
      <trkpt lat="45.99959" lon="3.61195">
        <ele>532.79</ele>
        <time>2022-09-11T10:29:05Z</time>
      </trkpt>
      <trkpt lat="45.99917" lon="3.61208">
        <ele>528.23</ele>
        <time>2022-09-11T10:29:13Z</time>
      </trkpt>
      <trkpt lat="45.99881" lon="3.61211">
        <ele>526.91</ele>
        <time>2022-09-11T10:29:21Z</time>
      </trkpt>
      <trkpt lat="45.99842" lon="3.612">
        <ele>526.06</ele>
        <time>2022-09-11T10:29:37Z</time>
      </trkpt>
      <trkpt lat="45.99805" lon="3.61214">
        <ele>523.89</ele>
        <time>2022-09-11T10:29:49Z</time>
      </trkpt>
      <trkpt lat="45.99769" lon="3.6125">
        <ele>522.17</ele>
        <time>2022-09-11T10:30:01Z</time>
      </trkpt>
      <trkpt lat="45.99736" lon="3.61287">
        <ele>529.03</ele>
        <time>2022-09-11T10:30:09Z</time>
      </trkpt>
      <trkpt lat="45.99693" lon="3.61297">
        <ele>527.6</ele>
        <time>2022-09-11T10:30:33Z</time>
      </trkpt>
      <trkpt lat="45.99653" lon="3.61295">
        <ele>531.19</ele>
        <time>2022-09-11T10:31:01Z</time>
      </trkpt>
      <trkpt lat="45.99612" lon="3.61286">
        <ele>531.43</ele>
        <time>2022-09-11T10:31:17Z</time>
      </trkpt>
      <trkpt lat="45.99575" lon="3.61267">
        <ele>534.33</ele>
        <time>2022-09-11T10:31:45Z</time>
      </trkpt>
      <trkpt lat="45.99534" lon="3.61259">
        <ele>544.03</ele>
        <time>2022-09-11T10:32:29Z</time>
      </trkpt>
      <trkpt lat="45.99528" lon="3.61312">
        <ele>543.51</ele>
        <time>2022-09-11T10:32:49Z</time>
      </trkpt>
      <trkpt lat="45.99517" lon="3.61375">
        <ele>532.27</ele>
        <time>2022-09-11T10:34:01Z</time>
      </trkpt>
      <trkpt lat="45.99475" lon="3.61399">
        <ele>524.4</ele>
        <time>2022-09-11T10:34:13Z</time>
      </trkpt>
      <trkpt lat="45.9944" lon="3.6143">
        <ele>517.88</ele>
        <time>2022-09-11T10:34:29Z</time>
      </trkpt>
      <trkpt lat="45.99414" lon="3.61469">
        <ele>521.13</ele>
        <time>2022-09-11T10:34:45Z</time>
      </trkpt>
      <trkpt lat="45.994" lon="3.61519">
        <ele>522.47</ele>
        <time>2022-09-11T10:36:21Z</time>
      </trkpt>
      <trkpt lat="45.99437" lon="3.61521">
        <ele>527.65</ele>
        <time>2022-09-11T10:38:29Z</time>
      </trkpt>
      <trkpt lat="45.99465" lon="3.61483">
        <ele>524.46</ele>
        <time>2022-09-11T10:43:21Z</time>
      </trkpt>
      <trkpt lat="45.99507" lon="3.61493">
        <ele>533.48</ele>
        <time>2022-09-11T10:43:49Z</time>
      </trkpt>
      <trkpt lat="45.99544" lon="3.61505">
        <ele>547.73</ele>
        <time>2022-09-11T10:44:21Z</time>
      </trkpt>
      <trkpt lat="45.99581" lon="3.6151">
        <ele>557.25</ele>
        <time>2022-09-11T10:45:29Z</time>
      </trkpt>
      <trkpt lat="45.9962" lon="3.61531">
        <ele>564.26</ele>
        <time>2022-09-11T10:46:13Z</time>
      </trkpt>
      <trkpt lat="45.99648" lon="3.61564">
        <ele>569.2</ele>
        <time>2022-09-11T10:46:45Z</time>
      </trkpt>
      <trkpt lat="45.9967" lon="3.61607">
        <ele>569.9</ele>
        <time>2022-09-11T10:47:21Z</time>
      </trkpt>
      <trkpt lat="45.99657" lon="3.61657">
        <ele>587.7</ele>
        <time>2022-09-11T10:50:09Z</time>
      </trkpt>
      <trkpt lat="45.99638" lon="3.61703">
        <ele>589.54</ele>
        <time>2022-09-11T10:50:37Z</time>
      </trkpt>
      <trkpt lat="45.99618" lon="3.61747">
        <ele>590.86</ele>
        <time>2022-09-11T10:51:09Z</time>
      </trkpt>
      <trkpt lat="45.99581" lon="3.61778">
        <ele>581.7</ele>
        <time>2022-09-11T10:51:41Z</time>
      </trkpt>
      <trkpt lat="45.9955" lon="3.61809">
        <ele>588.37</ele>
        <time>2022-09-11T10:52:09Z</time>
      </trkpt>
      <trkpt lat="45.99517" lon="3.61832">
        <ele>603.53</ele>
        <time>2022-09-11T10:52:37Z</time>
      </trkpt>
      <trkpt lat="45.99494" lon="3.6188">
        <ele>591.44</ele>
        <time>2022-09-11T10:53:05Z</time>
      </trkpt>
      <trkpt lat="45.99469" lon="3.61924">
        <ele>594.61</ele>
        <time>2022-09-11T10:53:33Z</time>
      </trkpt>
      <trkpt lat="45.99468" lon="3.61982">
        <ele>607.27</ele>
        <time>2022-09-11T10:54:05Z</time>
      </trkpt>
      <trkpt lat="45.99456" lon="3.62032">
        <ele>612.95</ele>
        <time>2022-09-11T10:54:37Z</time>
      </trkpt>
      <trkpt lat="45.99463" lon="3.62083">
        <ele>601.02</ele>
        <time>2022-09-11T10:55:09Z</time>
      </trkpt>
      <trkpt lat="45.99483" lon="3.62132">
        <ele>614.9</ele>
        <time>2022-09-11T10:55:41Z</time>
      </trkpt>
      <trkpt lat="45.99493" lon="3.62182">
        <ele>622.4</ele>
        <time>2022-09-11T10:56:13Z</time>
      </trkpt>
      <trkpt lat="45.99519" lon="3.62226">
        <ele>628.41</ele>
        <time>2022-09-11T10:56:45Z</time>
      </trkpt>
      <trkpt lat="45.9955" lon="3.62259">
        <ele>642.53</ele>
        <time>2022-09-11T10:57:53Z</time>
      </trkpt>
      <trkpt lat="45.99577" lon="3.62301">
        <ele>652.58</ele>
        <time>2022-09-11T10:58:45Z</time>
      </trkpt>
      <trkpt lat="45.99607" lon="3.62336">
        <ele>653.59</ele>
        <time>2022-09-11T10:59:21Z</time>
      </trkpt>
      <trkpt lat="45.99633" lon="3.62379">
        <ele>647.59</ele>
        <time>2022-09-11T10:59:49Z</time>
      </trkpt>
      <trkpt lat="45.99671" lon="3.62402">
        <ele>651.13</ele>
        <time>2022-09-11T11:00:13Z</time>
      </trkpt>
      <trkpt lat="45.99714" lon="3.62399">
        <ele>652.21</ele>
        <time>2022-09-11T11:00:29Z</time>
      </trkpt>
      <trkpt lat="45.99752" lon="3.62369">
        <ele>659.02</ele>
        <time>2022-09-11T11:00:49Z</time>
      </trkpt>
      <trkpt lat="45.99788" lon="3.62352">
        <ele>664.12</ele>
        <time>2022-09-11T11:01:09Z</time>
      </trkpt>
      <trkpt lat="45.99831" lon="3.62348">
        <ele>666.52</ele>
        <time>2022-09-11T11:01:29Z</time>
      </trkpt>
      <trkpt lat="45.99868" lon="3.62369">
        <ele>673.61</ele>
        <time>2022-09-11T11:01:49Z</time>
      </trkpt>
      <trkpt lat="45.99907" lon="3.62394">
        <ele>674.95</ele>
        <time>2022-09-11T11:02:13Z</time>
      </trkpt>
      <trkpt lat="45.9995" lon="3.62402">
        <ele>674.81</ele>
        <time>2022-09-11T11:04:37Z</time>
      </trkpt>
      <trkpt lat="46.00005" lon="3.62379">
        <ele>671.99</ele>
        <time>2022-09-11T11:04:45Z</time>
      </trkpt>
      <trkpt lat="46.00058" lon="3.62361">
        <ele>678.45</ele>
        <time>2022-09-11T11:04:53Z</time>
      </trkpt>
      <trkpt lat="46.00125" lon="3.62327">
        <ele>668.95</ele>
        <time>2022-09-11T11:05:01Z</time>
      </trkpt>
      <trkpt lat="46.00153" lon="3.62275">
        <ele>666.57</ele>
        <time>2022-09-11T11:05:05Z</time>
      </trkpt>
      <trkpt lat="46.00179" lon="3.62232">
        <ele>665.16</ele>
        <time>2022-09-11T11:05:09Z</time>
      </trkpt>
      <trkpt lat="46.00216" lon="3.62197">
        <ele>661.23</ele>
        <time>2022-09-11T11:05:13Z</time>
      </trkpt>
      <trkpt lat="46.00269" lon="3.62172">
        <ele>652.35</ele>
        <time>2022-09-11T11:05:21Z</time>
      </trkpt>
      <trkpt lat="46.00287" lon="3.62125">
        <ele>653.52</ele>
        <time>2022-09-11T11:05:29Z</time>
      </trkpt>
      <trkpt lat="46.00306" lon="3.62069">
        <ele>653.34</ele>
        <time>2022-09-11T11:05:37Z</time>
      </trkpt>
      <trkpt lat="46.00337" lon="3.61975">
        <ele>644.5</ele>
        <time>2022-09-11T11:05:45Z</time>
      </trkpt>
      <trkpt lat="46.00367" lon="3.61925">
        <ele>638.94</ele>
        <time>2022-09-11T11:05:49Z</time>
      </trkpt>
      <trkpt lat="46.00389" lon="3.61867">
        <ele>633.07</ele>
        <time>2022-09-11T11:05:53Z</time>
      </trkpt>
      <trkpt lat="46.00432" lon="3.6181">
        <ele>638.41</ele>
        <time>2022-09-11T11:06:01Z</time>
      </trkpt>
      <trkpt lat="46.00466" lon="3.61778">
        <ele>644.25</ele>
        <time>2022-09-11T11:06:17Z</time>
      </trkpt>
      <trkpt lat="46.00504" lon="3.61747">
        <ele>651.85</ele>
        <time>2022-09-11T11:06:33Z</time>
      </trkpt>
      <trkpt lat="46.00536" lon="3.61689">
        <ele>645.06</ele>
        <time>2022-09-11T11:06:45Z</time>
      </trkpt>
      <trkpt lat="46.00578" lon="3.6165">
        <ele>645.02</ele>
        <time>2022-09-11T11:06:53Z</time>
      </trkpt>
      <trkpt lat="46.00612" lon="3.61588">
        <ele>636.61</ele>
        <time>2022-09-11T11:07:01Z</time>
      </trkpt>
      <trkpt lat="46.00642" lon="3.61539">
        <ele>635.09</ele>
        <time>2022-09-11T11:07:09Z</time>
      </trkpt>
      <trkpt lat="46.00669" lon="3.61496">
        <ele>632.5</ele>
        <time>2022-09-11T11:07:17Z</time>
      </trkpt>
      <trkpt lat="46.00689" lon="3.61441">
        <ele>626.32</ele>
        <time>2022-09-11T11:07:25Z</time>
      </trkpt>
      <trkpt lat="46.00714" lon="3.61404">
        <ele>627.35</ele>
        <time>2022-09-11T11:07:37Z</time>
      </trkpt>
      <trkpt lat="46.00735" lon="3.61341">
        <ele>624.46</ele>
        <time>2022-09-11T11:07:49Z</time>
      </trkpt>
      <trkpt lat="46.00757" lon="3.61296">
        <ele>614.04</ele>
        <time>2022-09-11T11:07:57Z</time>
      </trkpt>
      <trkpt lat="46.00784" lon="3.61259">
        <ele>599.4</ele>
        <time>2022-09-11T11:08:17Z</time>
      </trkpt>
      <trkpt lat="46.00813" lon="3.6122">
        <ele>608.08</ele>
        <time>2022-09-11T11:08:33Z</time>
      </trkpt>
      <trkpt lat="46.00849" lon="3.61231">
        <ele>609.39</ele>
        <time>2022-09-11T11:08:53Z</time>
      </trkpt>
      <trkpt lat="46.00903" lon="3.61227">
        <ele>603.39</ele>
        <time>2022-09-11T11:09:05Z</time>
      </trkpt>
      <trkpt lat="46.0095" lon="3.61219">
        <ele>596.07</ele>
        <time>2022-09-11T11:09:41Z</time>
      </trkpt>
      <trkpt lat="46.00988" lon="3.61225">
        <ele>577.15</ele>
        <time>2022-09-11T11:09:53Z</time>
      </trkpt>
      <trkpt lat="46.01012" lon="3.61278">
        <ele>567.38</ele>
        <time>2022-09-11T11:10:09Z</time>
      </trkpt>
      <trkpt lat="46.0103" lon="3.61327">
        <ele>568.97</ele>
        <time>2022-09-11T11:10:25Z</time>
      </trkpt>
      <trkpt lat="46.01041" lon="3.61391">
        <ele>577.05</ele>
        <time>2022-09-11T11:10:45Z</time>
      </trkpt>
      <trkpt lat="46.01071" lon="3.61423">
        <ele>575.55</ele>
        <time>2022-09-11T11:10:53Z</time>
      </trkpt>
      <trkpt lat="46.01105" lon="3.61473">
        <ele>566.38</ele>
        <time>2022-09-11T11:11:01Z</time>
      </trkpt>
      <trkpt lat="46.01122" lon="3.6153">
        <ele>566.26</ele>
        <time>2022-09-11T11:11:17Z</time>
      </trkpt>
      <trkpt lat="46.01155" lon="3.61598">
        <ele>558.86</ele>
        <time>2022-09-11T11:11:29Z</time>
      </trkpt>
      <trkpt lat="46.01212" lon="3.61587">
        <ele>551.93</ele>
        <time>2022-09-11T11:11:37Z</time>
      </trkpt>
      <trkpt lat="46.01245" lon="3.61553">
        <ele>541.94</ele>
        <time>2022-09-11T11:11:49Z</time>
      </trkpt>
      <trkpt lat="46.01283" lon="3.61512">
        <ele>526.68</ele>
        <time>2022-09-11T11:11:57Z</time>
      </trkpt>
      <trkpt lat="46.01334" lon="3.61482">
        <ele>521.01</ele>
        <time>2022-09-11T11:12:09Z</time>
      </trkpt>
      <trkpt lat="46.01368" lon="3.61454">
        <ele>518.02</ele>
        <time>2022-09-11T11:12:25Z</time>
      </trkpt>
      <trkpt lat="46.01417" lon="3.6146">
        <ele>510.04</ele>
        <time>2022-09-11T11:12:33Z</time>
      </trkpt>
      <trkpt lat="46.01457" lon="3.61496">
        <ele>499.87</ele>
        <time>2022-09-11T11:12:41Z</time>
      </trkpt>
      <trkpt lat="46.01462" lon="3.61563">
        <ele>493.63</ele>
        <time>2022-09-11T11:12:49Z</time>
      </trkpt>
      <trkpt lat="46.01455" lon="3.61616">
        <ele>493.58</ele>
        <time>2022-09-11T11:12:53Z</time>
      </trkpt>
      <trkpt lat="46.01467" lon="3.61669">
        <ele>491.86</ele>
        <time>2022-09-11T11:13:09Z</time>
      </trkpt>
      <trkpt lat="46.01504" lon="3.61658">
        <ele>487.31</ele>
        <time>2022-09-11T11:14:25Z</time>
      </trkpt>
      <trkpt lat="46.01551" lon="3.61683">
        <ele>487.83</ele>
        <time>2022-09-11T11:14:45Z</time>
      </trkpt>
      <trkpt lat="46.01584" lon="3.61723">
        <ele>483.87</ele>
        <time>2022-09-11T11:14:53Z</time>
      </trkpt>
      <trkpt lat="46.01616" lon="3.61755">
        <ele>484.42</ele>
        <time>2022-09-11T11:15:09Z</time>
      </trkpt>
      <trkpt lat="46.01652" lon="3.61782">
        <ele>494.32</ele>
        <time>2022-09-11T11:15:33Z</time>
      </trkpt>
      <trkpt lat="46.01694" lon="3.61797">
        <ele>483.48</ele>
        <time>2022-09-11T11:16:05Z</time>
      </trkpt>
      <trkpt lat="46.01727" lon="3.61822">
        <ele>486.11</ele>
        <time>2022-09-11T11:16:33Z</time>
      </trkpt>
      <trkpt lat="46.0176" lon="3.61845">
        <ele>493.59</ele>
        <time>2022-09-11T11:17:09Z</time>
      </trkpt>
      <trkpt lat="46.01794" lon="3.61865">
        <ele>506.76</ele>
        <time>2022-09-11T11:17:37Z</time>
      </trkpt>
      <trkpt lat="46.0182" lon="3.61905">
        <ele>509.22</ele>
        <time>2022-09-11T11:18:13Z</time>
      </trkpt>
      <trkpt lat="46.01831" lon="3.61957">
        <ele>507.32</ele>
        <time>2022-09-11T11:18:41Z</time>
      </trkpt>
      <trkpt lat="46.01854" lon="3.62">
        <ele>518.73</ele>
        <time>2022-09-11T11:19:17Z</time>
      </trkpt>
      <trkpt lat="46.01875" lon="3.62042">
        <ele>525.26</ele>
        <time>2022-09-11T11:19:53Z</time>
      </trkpt>
      <trkpt lat="46.01905" lon="3.62078">
        <ele>528.8</ele>
        <time>2022-09-11T11:20:33Z</time>
      </trkpt>
      <trkpt lat="46.01937" lon="3.62107">
        <ele>533.52</ele>
        <time>2022-09-11T11:21:05Z</time>
      </trkpt>
      <trkpt lat="46.01898" lon="3.62071">
        <ele>529.79</ele>
        <time>2022-09-11T11:21:45Z</time>
      </trkpt>
      <trkpt lat="46.01869" lon="3.62029">
        <ele>526.91</ele>
        <time>2022-09-11T11:21:57Z</time>
      </trkpt>
      <trkpt lat="46.019" lon="3.62068">
        <ele>526.7</ele>
        <time>2022-09-11T11:23:13Z</time>
      </trkpt>
      <trkpt lat="46.01932" lon="3.621">
        <ele>528.11</ele>
        <time>2022-09-11T11:23:45Z</time>
      </trkpt>
      <trkpt lat="46.01968" lon="3.62122">
        <ele>535.34</ele>
        <time>2022-09-11T11:24:13Z</time>
      </trkpt>
      <trkpt lat="46.02004" lon="3.6212">
        <ele>540.87</ele>
        <time>2022-09-11T11:24:41Z</time>
      </trkpt>
      <trkpt lat="46.02044" lon="3.62122">
        <ele>535.8</ele>
        <time>2022-09-11T11:25:09Z</time>
      </trkpt>
      <trkpt lat="46.02083" lon="3.62108">
        <ele>543.44</ele>
        <time>2022-09-11T11:25:41Z</time>
      </trkpt>
      <trkpt lat="46.02121" lon="3.62116">
        <ele>550.58</ele>
        <time>2022-09-11T11:26:13Z</time>
      </trkpt>
      <trkpt lat="46.02162" lon="3.62093">
        <ele>545.62</ele>
        <time>2022-09-11T11:27:41Z</time>
      </trkpt>
      <trkpt lat="46.0219" lon="3.62059">
        <ele>545.98</ele>
        <time>2022-09-11T11:28:05Z</time>
      </trkpt>
      <trkpt lat="46.02206" lon="3.6201">
        <ele>559.07</ele>
        <time>2022-09-11T11:28:25Z</time>
      </trkpt>
      <trkpt lat="46.02235" lon="3.61972">
        <ele>562.15</ele>
        <time>2022-09-11T11:28:53Z</time>
      </trkpt>
      <trkpt lat="46.02257" lon="3.61929">
        <ele>572.38</ele>
        <time>2022-09-11T11:29:21Z</time>
      </trkpt>
      <trkpt lat="46.02285" lon="3.61886">
        <ele>573.92</ele>
        <time>2022-09-11T11:30:41Z</time>
      </trkpt>
      <trkpt lat="46.02323" lon="3.61873">
        <ele>574.48</ele>
        <time>2022-09-11T11:31:05Z</time>
      </trkpt>
      <trkpt lat="46.02359" lon="3.61854">
        <ele>578.73</ele>
        <time>2022-09-11T11:31:25Z</time>
      </trkpt>
      <trkpt lat="46.02399" lon="3.61843">
        <ele>580.92</ele>
        <time>2022-09-11T11:31:45Z</time>
      </trkpt>
      <trkpt lat="46.0244" lon="3.61834">
        <ele>582.28</ele>
        <time>2022-09-11T11:32:05Z</time>
      </trkpt>
      <trkpt lat="46.0248" lon="3.61826">
        <ele>587.01</ele>
        <time>2022-09-11T11:32:25Z</time>
      </trkpt>
      <trkpt lat="46.0252" lon="3.61828">
        <ele>591.08</ele>
        <time>2022-09-11T11:32:45Z</time>
      </trkpt>
      <trkpt lat="46.02558" lon="3.61849">
        <ele>589.2</ele>
        <time>2022-09-11T11:33:09Z</time>
      </trkpt>
      <trkpt lat="46.02592" lon="3.61871">
        <ele>592.52</ele>
        <time>2022-09-11T11:33:49Z</time>
      </trkpt>
      <trkpt lat="46.02629" lon="3.61889">
        <ele>593.53</ele>
        <time>2022-09-11T11:34:09Z</time>
      </trkpt>
      <trkpt lat="46.02675" lon="3.61887">
        <ele>596.64</ele>
        <time>2022-09-11T11:34:29Z</time>
      </trkpt>
      <trkpt lat="46.02708" lon="3.61862">
        <ele>592.03</ele>
        <time>2022-09-11T11:34:45Z</time>
      </trkpt>
      <trkpt lat="46.02745" lon="3.61847">
        <ele>598.23</ele>
        <time>2022-09-11T11:35:01Z</time>
      </trkpt>
      <trkpt lat="46.02785" lon="3.61859">
        <ele>597.5</ele>
        <time>2022-09-11T11:35:21Z</time>
      </trkpt>
      <trkpt lat="46.02821" lon="3.61831">
        <ele>601.38</ele>
        <time>2022-09-11T11:35:37Z</time>
      </trkpt>
      <trkpt lat="46.02835" lon="3.61772">
        <ele>599.48</ele>
        <time>2022-09-11T11:36:05Z</time>
      </trkpt>
      <trkpt lat="46.02809" lon="3.61708">
        <ele>596.05</ele>
        <time>2022-09-11T11:36:17Z</time>
      </trkpt>
      <trkpt lat="46.02787" lon="3.6164">
        <ele>590.12</ele>
        <time>2022-09-11T11:36:29Z</time>
      </trkpt>
      <trkpt lat="46.02795" lon="3.61586">
        <ele>588.69</ele>
        <time>2022-09-11T11:36:37Z</time>
      </trkpt>
      <trkpt lat="46.02766" lon="3.61553">
        <ele>593.71</ele>
        <time>2022-09-11T11:36:49Z</time>
      </trkpt>
      <trkpt lat="46.02739" lon="3.61517">
        <ele>595.5</ele>
        <time>2022-09-11T11:37:01Z</time>
      </trkpt>
      <trkpt lat="46.02717" lon="3.61468">
        <ele>592.83</ele>
        <time>2022-09-11T11:37:13Z</time>
      </trkpt>
      <trkpt lat="46.02684" lon="3.61413">
        <ele>592.29</ele>
        <time>2022-09-11T11:37:29Z</time>
      </trkpt>
      <trkpt lat="46.02665" lon="3.61364">
        <ele>592.41</ele>
        <time>2022-09-11T11:37:41Z</time>
      </trkpt>
      <trkpt lat="46.02632" lon="3.61322">
        <ele>592.71</ele>
        <time>2022-09-11T11:37:57Z</time>
      </trkpt>
      <trkpt lat="46.02606" lon="3.61278">
        <ele>600.62</ele>
        <time>2022-09-11T11:38:09Z</time>
      </trkpt>
      <trkpt lat="46.02598" lon="3.61214">
        <ele>599.79</ele>
        <time>2022-09-11T11:38:21Z</time>
      </trkpt>
      <trkpt lat="46.02587" lon="3.61146">
        <ele>599.26</ele>
        <time>2022-09-11T11:38:33Z</time>
      </trkpt>
      <trkpt lat="46.02563" lon="3.61085">
        <ele>596.47</ele>
        <time>2022-09-11T11:38:45Z</time>
      </trkpt>
      <trkpt lat="46.02544" lon="3.61041">
        <ele>602.78</ele>
        <time>2022-09-11T11:38:53Z</time>
      </trkpt>
      <trkpt lat="46.02515" lon="3.60985">
        <ele>603.01</ele>
        <time>2022-09-11T11:39:05Z</time>
      </trkpt>
      <trkpt lat="46.02485" lon="3.60937">
        <ele>600.9</ele>
        <time>2022-09-11T11:39:17Z</time>
      </trkpt>
      <trkpt lat="46.0246" lon="3.60893">
        <ele>596.43</ele>
        <time>2022-09-11T11:39:33Z</time>
      </trkpt>
      <trkpt lat="46.0243" lon="3.60853">
        <ele>598.86</ele>
        <time>2022-09-11T11:39:45Z</time>
      </trkpt>
      <trkpt lat="46.02395" lon="3.60805">
        <ele>594.4</ele>
        <time>2022-09-11T11:39:57Z</time>
      </trkpt>
      <trkpt lat="46.02369" lon="3.60765">
        <ele>595.66</ele>
        <time>2022-09-11T11:40:05Z</time>
      </trkpt>
      <trkpt lat="46.02345" lon="3.60712">
        <ele>585.97</ele>
        <time>2022-09-11T11:40:13Z</time>
      </trkpt>
      <trkpt lat="46.02315" lon="3.60671">
        <ele>586.57</ele>
        <time>2022-09-11T11:40:21Z</time>
      </trkpt>
      <trkpt lat="46.02285" lon="3.60603">
        <ele>585.5</ele>
        <time>2022-09-11T11:40:33Z</time>
      </trkpt>
      <trkpt lat="46.02255" lon="3.60544">
        <ele>585.91</ele>
        <time>2022-09-11T11:40:45Z</time>
      </trkpt>
      <trkpt lat="46.02237" lon="3.60481">
        <ele>587.65</ele>
        <time>2022-09-11T11:42:41Z</time>
      </trkpt>
      <trkpt lat="46.02198" lon="3.60428">
        <ele>581.96</ele>
        <time>2022-09-11T11:42:49Z</time>
      </trkpt>
      <trkpt lat="46.02153" lon="3.6039">
        <ele>581.87</ele>
        <time>2022-09-11T11:42:57Z</time>
      </trkpt>
      <trkpt lat="46.02113" lon="3.60345">
        <ele>578.15</ele>
        <time>2022-09-11T11:43:05Z</time>
      </trkpt>
      <trkpt lat="46.02072" lon="3.60296">
        <ele>565.7</ele>
        <time>2022-09-11T11:43:21Z</time>
      </trkpt>
      <trkpt lat="46.02054" lon="3.6024">
        <ele>558.89</ele>
        <time>2022-09-11T11:43:53Z</time>
      </trkpt>
      <trkpt lat="46.02104" lon="3.60192">
        <ele>554.7</ele>
        <time>2022-09-11T11:44:05Z</time>
      </trkpt>
      <trkpt lat="46.02153" lon="3.60153">
        <ele>548.83</ele>
        <time>2022-09-11T11:44:13Z</time>
      </trkpt>
      <trkpt lat="46.02184" lon="3.60124">
        <ele>545.83</ele>
        <time>2022-09-11T11:44:17Z</time>
      </trkpt>
      <trkpt lat="46.02215" lon="3.60072">
        <ele>548.1</ele>
        <time>2022-09-11T11:44:25Z</time>
      </trkpt>
      <trkpt lat="46.02244" lon="3.60022">
        <ele>545.84</ele>
        <time>2022-09-11T11:44:37Z</time>
      </trkpt>
      <trkpt lat="46.02273" lon="3.59976">
        <ele>542.98</ele>
        <time>2022-09-11T11:44:49Z</time>
      </trkpt>
      <trkpt lat="46.02309" lon="3.59931">
        <ele>540.35</ele>
        <time>2022-09-11T11:44:57Z</time>
      </trkpt>
      <trkpt lat="46.02348" lon="3.59951">
        <ele>542</ele>
        <time>2022-09-11T11:45:25Z</time>
      </trkpt>
      <trkpt lat="46.02391" lon="3.59983">
        <ele>534.03</ele>
        <time>2022-09-11T11:45:33Z</time>
      </trkpt>
      <trkpt lat="46.02425" lon="3.60046">
        <ele>528.14</ele>
        <time>2022-09-11T11:45:41Z</time>
      </trkpt>
      <trkpt lat="46.02462" lon="3.6009">
        <ele>519.91</ele>
        <time>2022-09-11T11:45:49Z</time>
      </trkpt>
      <trkpt lat="46.02481" lon="3.60157">
        <ele>518.07</ele>
        <time>2022-09-11T11:46:01Z</time>
      </trkpt>
      <trkpt lat="46.02499" lon="3.60249">
        <ele>516.48</ele>
        <time>2022-09-11T11:46:09Z</time>
      </trkpt>
      <trkpt lat="46.02521" lon="3.60292">
        <ele>513.7</ele>
        <time>2022-09-11T11:46:21Z</time>
      </trkpt>
      <trkpt lat="46.02553" lon="3.60331">
        <ele>518.33</ele>
        <time>2022-09-11T11:46:37Z</time>
      </trkpt>
      <trkpt lat="46.0259" lon="3.60321">
        <ele>518.15</ele>
        <time>2022-09-11T11:46:49Z</time>
      </trkpt>
      <trkpt lat="46.02629" lon="3.60311">
        <ele>522.17</ele>
        <time>2022-09-11T11:47:13Z</time>
      </trkpt>
      <trkpt lat="46.02666" lon="3.60323">
        <ele>525.43</ele>
        <time>2022-09-11T11:47:45Z</time>
      </trkpt>
      <trkpt lat="46.02703" lon="3.60301">
        <ele>533.48</ele>
        <time>2022-09-11T11:48:13Z</time>
      </trkpt>
      <trkpt lat="46.02747" lon="3.60312">
        <ele>539.12</ele>
        <time>2022-09-11T11:48:45Z</time>
      </trkpt>
      <trkpt lat="46.02766" lon="3.60239">
        <ele>537.34</ele>
        <time>2022-09-11T11:50:41Z</time>
      </trkpt>
      <trkpt lat="46.02794" lon="3.60187">
        <ele>534.87</ele>
        <time>2022-09-11T11:50:49Z</time>
      </trkpt>
      <trkpt lat="46.02819" lon="3.60131">
        <ele>531.71</ele>
        <time>2022-09-11T11:50:57Z</time>
      </trkpt>
      <trkpt lat="46.02845" lon="3.60074">
        <ele>511.02</ele>
        <time>2022-09-11T11:51:21Z</time>
      </trkpt>
      <trkpt lat="46.02866" lon="3.60017">
        <ele>501.78</ele>
        <time>2022-09-11T11:51:33Z</time>
      </trkpt>
      <trkpt lat="46.02884" lon="3.59969">
        <ele>495.33</ele>
        <time>2022-09-11T11:51:49Z</time>
      </trkpt>
      <trkpt lat="46.02901" lon="3.59914">
        <ele>494.81</ele>
        <time>2022-09-11T11:52:01Z</time>
      </trkpt>
      <trkpt lat="46.02905" lon="3.59846">
        <ele>490.88</ele>
        <time>2022-09-11T11:52:13Z</time>
      </trkpt>
      <trkpt lat="46.02894" lon="3.59794">
        <ele>478.68</ele>
        <time>2022-09-11T11:52:25Z</time>
      </trkpt>
      <trkpt lat="46.02905" lon="3.5974">
        <ele>474.84</ele>
        <time>2022-09-11T11:52:57Z</time>
      </trkpt>
      <trkpt lat="46.02929" lon="3.5969">
        <ele>469.6</ele>
        <time>2022-09-11T11:53:09Z</time>
      </trkpt>
      <trkpt lat="46.02962" lon="3.59639">
        <ele>466.18</ele>
        <time>2022-09-11T11:53:25Z</time>
      </trkpt>
      <trkpt lat="46.02953" lon="3.59584">
        <ele>456.92</ele>
        <time>2022-09-11T11:53:53Z</time>
      </trkpt>
      <trkpt lat="46.02911" lon="3.59557">
        <ele>447.9</ele>
        <time>2022-09-11T11:54:09Z</time>
      </trkpt>
      <trkpt lat="46.02876" lon="3.59531">
        <ele>439.88</ele>
        <time>2022-09-11T11:55:01Z</time>
      </trkpt>
      <trkpt lat="46.02837" lon="3.59499">
        <ele>442.8</ele>
        <time>2022-09-11T11:55:09Z</time>
      </trkpt>
      <trkpt lat="46.02795" lon="3.59487">
        <ele>437.27</ele>
        <time>2022-09-11T11:55:21Z</time>
      </trkpt>
      <trkpt lat="46.02765" lon="3.59456">
        <ele>434.49</ele>
        <time>2022-09-11T11:55:49Z</time>
      </trkpt>
      <trkpt lat="46.02794" lon="3.59398">
        <ele>425.87</ele>
        <time>2022-09-11T11:55:57Z</time>
      </trkpt>
      <trkpt lat="46.02822" lon="3.59361">
        <ele>422.91</ele>
        <time>2022-09-11T11:56:09Z</time>
      </trkpt>
      <trkpt lat="46.02861" lon="3.59336">
        <ele>427.69</ele>
        <time>2022-09-11T11:56:25Z</time>
      </trkpt>
      <trkpt lat="46.02896" lon="3.59286">
        <ele>415.76</ele>
        <time>2022-09-11T11:57:05Z</time>
      </trkpt>
      <trkpt lat="46.0293" lon="3.59258">
        <ele>423.71</ele>
        <time>2022-09-11T11:57:17Z</time>
      </trkpt>
      <trkpt lat="46.02972" lon="3.59272">
        <ele>425.79</ele>
        <time>2022-09-11T11:57:33Z</time>
      </trkpt>
      <trkpt lat="46.02992" lon="3.59318">
        <ele>413.57</ele>
        <time>2022-09-11T11:58:21Z</time>
      </trkpt>
      <trkpt lat="46.03027" lon="3.59349">
        <ele>418.78</ele>
        <time>2022-09-11T11:58:45Z</time>
      </trkpt>
      <trkpt lat="46.03069" lon="3.59381">
        <ele>416.06</ele>
        <time>2022-09-11T11:59:13Z</time>
      </trkpt>
      <trkpt lat="46.03107" lon="3.59355">
        <ele>410.48</ele>
        <time>2022-09-11T11:59:33Z</time>
      </trkpt>
      <trkpt lat="46.03143" lon="3.59336">
        <ele>427.17</ele>
        <time>2022-09-11T11:59:53Z</time>
      </trkpt>
      <trkpt lat="46.03185" lon="3.59329">
        <ele>415.82</ele>
        <time>2022-09-11T12:00:33Z</time>
      </trkpt>
      <trkpt lat="46.03221" lon="3.59315">
        <ele>407.02</ele>
        <time>2022-09-11T12:00:45Z</time>
      </trkpt>
      <trkpt lat="46.03262" lon="3.59321">
        <ele>411.22</ele>
        <time>2022-09-11T12:01:05Z</time>
      </trkpt>
      <trkpt lat="46.03302" lon="3.59295">
        <ele>410.53</ele>
        <time>2022-09-11T12:01:29Z</time>
      </trkpt>
      <trkpt lat="46.0334" lon="3.59261">
        <ele>405.95</ele>
        <time>2022-09-11T12:01:49Z</time>
      </trkpt>
      <trkpt lat="46.03381" lon="3.59244">
        <ele>405.3</ele>
        <time>2022-09-11T12:02:05Z</time>
      </trkpt>
      <trkpt lat="46.03416" lon="3.59219">
        <ele>402.47</ele>
        <time>2022-09-11T12:02:17Z</time>
      </trkpt>
      <trkpt lat="46.03448" lon="3.59194">
        <ele>397.11</ele>
        <time>2022-09-11T12:02:29Z</time>
      </trkpt>
      <trkpt lat="46.03485" lon="3.59152">
        <ele>397.48</ele>
        <time>2022-09-11T12:02:41Z</time>
      </trkpt>
      <trkpt lat="46.03526" lon="3.59113">
        <ele>397.55</ele>
        <time>2022-09-11T12:02:53Z</time>
      </trkpt>
      <trkpt lat="46.03562" lon="3.59087">
        <ele>397.55</ele>
        <time>2022-09-11T12:03:05Z</time>
      </trkpt>
      <trkpt lat="46.0359" lon="3.59052">
        <ele>402.8</ele>
        <time>2022-09-11T12:03:17Z</time>
      </trkpt>
      <trkpt lat="46.03634" lon="3.59017">
        <ele>401.92</ele>
        <time>2022-09-11T12:03:29Z</time>
      </trkpt>
      <trkpt lat="46.03675" lon="3.58983">
        <ele>398.85</ele>
        <time>2022-09-11T12:03:45Z</time>
      </trkpt>
      <trkpt lat="46.03694" lon="3.58929">
        <ele>407.09</ele>
        <time>2022-09-11T12:04:01Z</time>
      </trkpt>
      <trkpt lat="46.03721" lon="3.58859">
        <ele>405.08</ele>
        <time>2022-09-11T12:04:13Z</time>
      </trkpt>
      <trkpt lat="46.03744" lon="3.58814">
        <ele>402.57</ele>
        <time>2022-09-11T12:04:21Z</time>
      </trkpt>
      <trkpt lat="46.0377" lon="3.58775">
        <ele>399.12</ele>
        <time>2022-09-11T12:04:29Z</time>
      </trkpt>
      <trkpt lat="46.03804" lon="3.58734">
        <ele>395.77</ele>
        <time>2022-09-11T12:04:41Z</time>
      </trkpt>
      <trkpt lat="46.03837" lon="3.58695">
        <ele>398.51</ele>
        <time>2022-09-11T12:04:53Z</time>
      </trkpt>
      <trkpt lat="46.03877" lon="3.58664">
        <ele>394.36</ele>
        <time>2022-09-11T12:05:13Z</time>
      </trkpt>
      <trkpt lat="46.03912" lon="3.58635">
        <ele>398.31</ele>
        <time>2022-09-11T12:05:33Z</time>
      </trkpt>
      <trkpt lat="46.03951" lon="3.58607">
        <ele>399.03</ele>
        <time>2022-09-11T12:05:53Z</time>
      </trkpt>
      <trkpt lat="46.03945" lon="3.5855">
        <ele>415.8</ele>
        <time>2022-09-11T12:06:29Z</time>
      </trkpt>
      <trkpt lat="46.03929" lon="3.58484">
        <ele>418.24</ele>
        <time>2022-09-11T12:06:45Z</time>
      </trkpt>
      <trkpt lat="46.03928" lon="3.5843">
        <ele>414.57</ele>
        <time>2022-09-11T12:07:01Z</time>
      </trkpt>
      <trkpt lat="46.03952" lon="3.58386">
        <ele>420.38</ele>
        <time>2022-09-11T12:07:37Z</time>
      </trkpt>
      <trkpt lat="46.03973" lon="3.5834">
        <ele>426.71</ele>
        <time>2022-09-11T12:08:13Z</time>
      </trkpt>
      <trkpt lat="46.0398" lon="3.58284">
        <ele>427.51</ele>
        <time>2022-09-11T12:08:49Z</time>
      </trkpt>
      <trkpt lat="46.0399" lon="3.58229">
        <ele>434.4</ele>
        <time>2022-09-11T12:09:25Z</time>
      </trkpt>
      <trkpt lat="46.04003" lon="3.58181">
        <ele>439.71</ele>
        <time>2022-09-11T12:10:01Z</time>
      </trkpt>
      <trkpt lat="46.04024" lon="3.58137">
        <ele>444.36</ele>
        <time>2022-09-11T12:10:41Z</time>
      </trkpt>
      <trkpt lat="46.04061" lon="3.58153">
        <ele>448.06</ele>
        <time>2022-09-11T12:11:21Z</time>
      </trkpt>
      <trkpt lat="46.04088" lon="3.58188">
        <ele>463.6</ele>
        <time>2022-09-11T12:14:17Z</time>
      </trkpt>
      <trkpt lat="46.04124" lon="3.58222">
        <ele>473.08</ele>
        <time>2022-09-11T12:14:57Z</time>
      </trkpt>
      <trkpt lat="46.0416" lon="3.58239">
        <ele>489.34</ele>
        <time>2022-09-11T12:15:37Z</time>
      </trkpt>
      <trkpt lat="46.04197" lon="3.58245">
        <ele>481.74</ele>
        <time>2022-09-11T12:23:07Z</time>
      </trkpt>
      <trkpt lat="46.04237" lon="3.58253">
        <ele>490.21</ele>
        <time>2022-09-11T12:23:43Z</time>
      </trkpt>
      <trkpt lat="46.04274" lon="3.58252">
        <ele>484.28</ele>
        <time>2022-09-11T12:24:11Z</time>
      </trkpt>
      <trkpt lat="46.04306" lon="3.58282">
        <ele>485.82</ele>
        <time>2022-09-11T12:24:39Z</time>
      </trkpt>
      <trkpt lat="46.0435" lon="3.58294">
        <ele>489.92</ele>
        <time>2022-09-11T12:25:03Z</time>
      </trkpt>
      <trkpt lat="46.0436" lon="3.58241">
        <ele>490.61</ele>
        <time>2022-09-11T12:26:19Z</time>
      </trkpt>
      <trkpt lat="46.04357" lon="3.58151">
        <ele>486.42</ele>
        <time>2022-09-11T12:26:31Z</time>
      </trkpt>
      <trkpt lat="46.04352" lon="3.58095">
        <ele>481.29</ele>
        <time>2022-09-11T12:26:39Z</time>
      </trkpt>
      <trkpt lat="46.04337" lon="3.5803">
        <ele>482.86</ele>
        <time>2022-09-11T12:26:47Z</time>
      </trkpt>
      <trkpt lat="46.04374" lon="3.57983">
        <ele>480.65</ele>
        <time>2022-09-11T12:26:59Z</time>
      </trkpt>
      <trkpt lat="46.04412" lon="3.57945">
        <ele>467.15</ele>
        <time>2022-09-11T12:27:11Z</time>
      </trkpt>
      <trkpt lat="46.0444" lon="3.57885">
        <ele>438.87</ele>
        <time>2022-09-11T12:27:27Z</time>
      </trkpt>
      <trkpt lat="46.04472" lon="3.57857">
        <ele>437.25</ele>
        <time>2022-09-11T12:27:35Z</time>
      </trkpt>
      <trkpt lat="46.04506" lon="3.57813">
        <ele>441.66</ele>
        <time>2022-09-11T12:27:43Z</time>
      </trkpt>
      <trkpt lat="46.04528" lon="3.57752">
        <ele>425.69</ele>
        <time>2022-09-11T12:29:15Z</time>
      </trkpt>
      <trkpt lat="46.04544" lon="3.57684">
        <ele>409.82</ele>
        <time>2022-09-11T12:29:23Z</time>
      </trkpt>
      <trkpt lat="46.04566" lon="3.57617">
        <ele>411.12</ele>
        <time>2022-09-11T12:29:31Z</time>
      </trkpt>
      <trkpt lat="46.04569" lon="3.57559">
        <ele>421.34</ele>
        <time>2022-09-11T12:29:47Z</time>
      </trkpt>
      <trkpt lat="46.04585" lon="3.57503">
        <ele>414.07</ele>
        <time>2022-09-11T12:30:07Z</time>
      </trkpt>
      <trkpt lat="46.04615" lon="3.57473">
        <ele>410.66</ele>
        <time>2022-09-11T12:30:15Z</time>
      </trkpt>
      <trkpt lat="46.04673" lon="3.57467">
        <ele>406.91</ele>
        <time>2022-09-11T12:30:27Z</time>
      </trkpt>
      <trkpt lat="46.04723" lon="3.5748">
        <ele>395.81</ele>
        <time>2022-09-11T12:30:35Z</time>
      </trkpt>
      <trkpt lat="46.04755" lon="3.57513">
        <ele>388.93</ele>
        <time>2022-09-11T12:30:47Z</time>
      </trkpt>
      <trkpt lat="46.04808" lon="3.57519">
        <ele>383.08</ele>
        <time>2022-09-11T12:31:11Z</time>
      </trkpt>
      <trkpt lat="46.04854" lon="3.57534">
        <ele>380.89</ele>
        <time>2022-09-11T12:31:23Z</time>
      </trkpt>
      <trkpt lat="46.04901" lon="3.57545">
        <ele>382.45</ele>
        <time>2022-09-11T12:31:35Z</time>
      </trkpt>
      <trkpt lat="46.04948" lon="3.57548">
        <ele>381.58</ele>
        <time>2022-09-11T12:31:47Z</time>
      </trkpt>
      <trkpt lat="46.04992" lon="3.57535">
        <ele>383.86</ele>
        <time>2022-09-11T12:31:59Z</time>
      </trkpt>
      <trkpt lat="46.05033" lon="3.57525">
        <ele>382.56</ele>
        <time>2022-09-11T12:32:15Z</time>
      </trkpt>
      <trkpt lat="46.05073" lon="3.57509">
        <ele>379.27</ele>
        <time>2022-09-11T12:32:27Z</time>
      </trkpt>
      <trkpt lat="46.05127" lon="3.57496">
        <ele>377.71</ele>
        <time>2022-09-11T12:32:35Z</time>
      </trkpt>
      <trkpt lat="46.05169" lon="3.57457">
        <ele>374.56</ele>
        <time>2022-09-11T12:32:43Z</time>
      </trkpt>
      <trkpt lat="46.05227" lon="3.57401">
        <ele>367.9</ele>
        <time>2022-09-11T12:32:51Z</time>
      </trkpt>
      <trkpt lat="46.05273" lon="3.57346">
        <ele>366.67</ele>
        <time>2022-09-11T12:32:59Z</time>
      </trkpt>
      <trkpt lat="46.0531" lon="3.57312">
        <ele>365.65</ele>
        <time>2022-09-11T12:33:07Z</time>
      </trkpt>
      <trkpt lat="46.05348" lon="3.57316">
        <ele>366.26</ele>
        <time>2022-09-11T12:33:15Z</time>
      </trkpt>
      <trkpt lat="46.05392" lon="3.57306">
        <ele>366.27</ele>
        <time>2022-09-11T12:33:27Z</time>
      </trkpt>
      <trkpt lat="46.05441" lon="3.57284">
        <ele>365.21</ele>
        <time>2022-09-11T12:33:39Z</time>
      </trkpt>
      <trkpt lat="46.05485" lon="3.57245">
        <ele>362.48</ele>
        <time>2022-09-11T12:33:51Z</time>
      </trkpt>
      <trkpt lat="46.05513" lon="3.57211">
        <ele>364.86</ele>
        <time>2022-09-11T12:33:59Z</time>
      </trkpt>
      <trkpt lat="46.05538" lon="3.57174">
        <ele>365.28</ele>
        <time>2022-09-11T12:34:07Z</time>
      </trkpt>
      <trkpt lat="46.0559" lon="3.57144">
        <ele>369.75</ele>
        <time>2022-09-11T12:34:19Z</time>
      </trkpt>
      <trkpt lat="46.0563" lon="3.57121">
        <ele>368.45</ele>
        <time>2022-09-11T12:34:27Z</time>
      </trkpt>
      <trkpt lat="46.05668" lon="3.57098">
        <ele>365.53</ele>
        <time>2022-09-11T12:34:35Z</time>
      </trkpt>
      <trkpt lat="46.05708" lon="3.57068">
        <ele>361.28</ele>
        <time>2022-09-11T12:34:43Z</time>
      </trkpt>
      <trkpt lat="46.05752" lon="3.57042">
        <ele>366.94</ele>
        <time>2022-09-11T12:34:55Z</time>
      </trkpt>
      <trkpt lat="46.05789" lon="3.57045">
        <ele>364.28</ele>
        <time>2022-09-11T12:35:03Z</time>
      </trkpt>
      <trkpt lat="46.05835" lon="3.57047">
        <ele>361.08</ele>
        <time>2022-09-11T12:35:15Z</time>
      </trkpt>
      <trkpt lat="46.05869" lon="3.57009">
        <ele>361.61</ele>
        <time>2022-09-11T12:35:31Z</time>
      </trkpt>
      <trkpt lat="46.05903" lon="3.56953">
        <ele>365.15</ele>
        <time>2022-09-11T12:35:43Z</time>
      </trkpt>
      <trkpt lat="46.05885" lon="3.56899">
        <ele>355.43</ele>
        <time>2022-09-11T12:35:59Z</time>
      </trkpt>
      <trkpt lat="46.05859" lon="3.5685">
        <ele>361.22</ele>
        <time>2022-09-11T12:36:15Z</time>
      </trkpt>
      <trkpt lat="46.05899" lon="3.56817">
        <ele>360.84</ele>
        <time>2022-09-11T12:36:27Z</time>
      </trkpt>
      <trkpt lat="46.05936" lon="3.56785">
        <ele>363</ele>
        <time>2022-09-11T12:36:39Z</time>
      </trkpt>
      <trkpt lat="46.05976" lon="3.56771">
        <ele>359.69</ele>
        <time>2022-09-11T12:36:51Z</time>
      </trkpt>
    </trkseg>
  </trk>
</gpx>